createdAt,value
2019-04-23T00:01:49.281Z,3.47
2019-04-23T00:04:20.423Z,3.37
2019-04-23T00:06:53.750Z,3.57
2019-04-23T00:09:15.615Z,2.77
2019-04-23T00:11:40.556Z,3.40
2019-04-23T00:14:05.607Z,3.50
2019-04-23T00:16:29.832Z,3.50
2019-04-23T00:18:49.488Z,3.57
2019-04-23T00:21:39.005Z,3.13
2019-04-23T00:24:12.057Z,3.90
2019-04-23T00:26:32.720Z,3.52
2019-04-23T00:31:24.700Z,3.40
2019-04-23T00:33:45.766Z,3.43
2019-04-23T00:36:10.775Z,3.40
2019-04-23T00:38:38.962Z,3.47
2019-04-23T00:41:05.710Z,3.60
2019-04-23T00:43:32.793Z,3.90
2019-04-23T00:45:57.674Z,3.80
2019-04-23T00:48:52.601Z,3.10
2019-04-23T00:55:47.842Z,3.73
2019-04-23T01:00:44.929Z,3.63
2019-04-23T01:03:05.837Z,3.30
2019-04-23T01:05:30.755Z,4.10
2019-04-23T01:07:58.110Z,3.80
2019-04-23T01:10:34.891Z,3.80
2019-04-23T01:12:59.679Z,3.97
2019-04-23T01:15:34.101Z,4.20
2019-04-23T01:18:08.122Z,3.63
2019-04-23T01:20:28.463Z,4.47
2019-04-23T01:22:37.886Z,4.47
2019-04-23T01:25:21.212Z,3.63
2019-04-23T01:28:23.113Z,4.10
2019-04-23T01:30:41.111Z,3.70
2019-04-23T01:33:09.200Z,3.97
2019-04-23T01:37:58.071Z,4.27
2019-04-23T01:40:34.755Z,3.67
2019-04-23T01:42:56.067Z,4.17
2019-04-23T01:47:50.152Z,4.13
2019-04-23T01:52:45.540Z,4.10
2019-04-23T01:55:09.650Z,4.60
2019-04-23T01:57:37.769Z,4.23
2019-04-23T02:00:03.291Z,3.67
2019-04-23T02:02:38.151Z,4.00
2019-04-23T02:05:01.385Z,3.90
2019-04-23T02:07:29.696Z,4.20
2019-04-23T02:09:48.526Z,3.80
2019-04-23T02:12:18.818Z,3.60
2019-04-23T02:14:43.560Z,3.83
2019-04-23T02:17:13.964Z,4.10
2019-04-23T02:19:38.519Z,3.30
2019-04-23T02:22:21.925Z,3.43
2019-04-23T02:24:41.400Z,3.43
2019-04-23T02:27:05.650Z,3.43
2019-04-23T02:32:08.851Z,3.60
2019-04-23T02:34:51.954Z,3.43
2019-04-23T02:36:57.705Z,3.80
2019-04-23T02:39:26.509Z,3.40
2019-04-23T02:41:54.456Z,3.93
2019-04-23T02:44:16.610Z,3.43
2019-04-23T02:46:40.880Z,3.53
2019-04-23T02:49:20.555Z,3.67
2019-04-23T02:51:39.571Z,3.50
2019-04-23T02:59:05.829Z,4.17
2019-04-23T03:01:31.777Z,4.00
2019-04-23T03:03:59.830Z,3.90
2019-04-23T03:06:14.948Z,3.90
2019-04-23T03:08:57.258Z,4.10
2019-04-23T03:11:23.632Z,4.35
2019-04-23T03:13:53.943Z,3.97
2019-04-23T03:16:47.679Z,4.33
2019-04-23T03:21:31.263Z,4.10
2019-04-23T03:24:28.560Z,3.93
2019-04-23T03:26:42.138Z,3.97
2019-04-23T03:28:57.639Z,3.90
2019-04-23T03:41:15.811Z,4.70
2019-04-23T03:48:34.021Z,4.30
2019-04-23T03:50:43.646Z,4.30
2019-04-23T03:53:34.698Z,4.72
2019-04-23T03:58:21.431Z,4.90
2019-04-23T04:08:16.040Z,5.67
2019-04-23T04:10:25.467Z,4.77
2019-04-23T04:15:48.946Z,4.50
2019-04-23T04:27:45.800Z,5.00
2019-04-23T04:32:41.388Z,5.30
2019-04-23T04:44:47.794Z,5.27
2019-04-23T04:47:09.675Z,4.40
2019-04-23T04:49:48.661Z,5.60
2019-04-23T04:52:26.781Z,5.07
2019-04-23T04:59:24.566Z,5.60
2019-04-23T05:04:19.863Z,5.50
2019-04-23T05:06:51.271Z,5.77
2019-04-23T05:09:11.405Z,4.97
2019-04-23T05:11:46.145Z,5.70
2019-04-23T05:16:29.282Z,5.10
2019-04-23T05:21:36.939Z,5.17
2019-04-23T05:23:54.426Z,5.23
2019-04-23T05:26:25.056Z,5.20
2019-04-23T05:28:55.551Z,5.40
2019-04-23T05:31:17.211Z,5.40
2019-04-23T05:33:41.494Z,5.60
2019-04-23T05:38:43.193Z,5.55
2019-04-23T05:43:26.158Z,5.37
2019-04-23T05:45:57.381Z,5.80
2019-04-23T05:53:11.539Z,6.20
2019-04-23T05:55:45.932Z,6.20
2019-04-23T05:58:15.094Z,5.10
2019-04-23T06:00:39.911Z,5.80
2019-04-23T06:03:08.093Z,6.03
2019-04-23T06:05:34.135Z,6.43
2019-04-23T06:07:55.224Z,6.10
2019-04-23T06:10:26.970Z,6.13
2019-04-23T06:12:52.286Z,6.53
2019-04-23T06:15:22.006Z,5.90
2019-04-23T06:17:47.492Z,6.37
2019-04-23T06:20:09.986Z,5.60
2019-04-23T06:25:35.172Z,5.83
2019-04-23T06:27:45.999Z,5.70
2019-04-23T06:29:57.484Z,5.67
2019-04-23T06:32:25.856Z,6.33
2019-04-23T06:37:24.720Z,7.03
2019-04-23T06:39:50.099Z,6.43
2019-04-23T06:42:09.596Z,6.33
2019-04-23T06:44:44.982Z,6.33
2019-04-23T06:47:06.934Z,6.33
2019-04-23T06:49:37.347Z,6.27
2019-04-23T06:52:15.160Z,6.30
2019-04-23T06:54:36.520Z,5.53
2019-04-23T06:57:09.081Z,6.47
2019-04-23T06:59:29.328Z,6.17
2019-04-23T07:04:17.911Z,6.37
2019-04-23T07:06:48.757Z,5.83
2019-04-23T07:09:10.553Z,6.30
2019-04-23T07:13:58.487Z,6.00
2019-04-23T07:16:27.822Z,6.30
2019-04-23T07:19:19.873Z,6.30
2019-04-23T07:21:23.583Z,5.73
2019-04-23T07:26:33.294Z,5.93
2019-04-23T07:28:50.116Z,6.10
2019-04-23T07:31:26.318Z,5.83
2019-04-23T07:33:47.588Z,6.07
2019-04-23T07:36:15.624Z,5.30
2019-04-23T07:41:52.722Z,6.27
2019-04-23T07:47:16.197Z,5.60
2019-04-23T07:49:30.739Z,6.40
2019-04-23T07:52:02.979Z,6.50
2019-04-23T07:54:32.566Z,5.27
2019-04-23T07:56:54.066Z,5.53
2019-04-23T07:59:20.743Z,6.07
2019-04-23T08:01:39.156Z,6.08
2019-04-23T08:04:14.356Z,6.13
2019-04-23T08:06:39.998Z,6.05
2019-04-23T08:09:02.320Z,6.00
2019-04-23T08:23:57.314Z,5.33
2019-04-23T08:26:48.177Z,6.30
2019-04-23T08:29:14.028Z,5.03
2019-04-23T08:34:16.780Z,5.63
2019-04-23T08:36:35.813Z,5.73
2019-04-23T08:38:58.675Z,5.07
2019-04-23T08:44:16.906Z,5.50
2019-04-23T08:46:35.548Z,5.63
2019-04-23T08:49:01.848Z,5.62
2019-04-23T08:51:32.404Z,5.13
2019-04-23T08:53:40.781Z,6.00
2019-04-23T08:56:11.934Z,5.40
2019-04-23T08:58:41.473Z,6.03
2019-04-23T09:01:13.691Z,5.87
2019-04-23T09:03:31.271Z,5.80
2019-04-23T09:05:57.651Z,5.70
2019-04-23T09:08:27.284Z,5.57
2019-04-23T09:11:07.644Z,5.70
2019-04-23T09:15:49.781Z,5.47
2019-04-23T09:18:16.419Z,5.30
2019-04-23T09:20:39.401Z,6.60
2019-04-23T09:23:01.915Z,6.07
2019-04-23T09:25:42.282Z,5.73
2019-04-23T09:27:59.387Z,5.50
2019-04-23T09:33:06.493Z,5.13
2019-04-23T09:35:36.363Z,6.57
2019-04-23T09:38:11.624Z,6.30
2019-04-23T09:43:48.544Z,5.87
2019-04-23T09:46:18.006Z,5.67
2019-04-23T09:48:50.970Z,5.47
2019-04-23T09:51:13.578Z,6.50
2019-04-23T09:53:34.403Z,5.67
2019-04-23T09:56:01.108Z,5.77
2019-04-23T09:58:21.887Z,5.87
2019-04-23T10:01:19.597Z,5.60
2019-04-23T10:03:25.448Z,5.65
2019-04-23T10:05:49.049Z,5.90
2019-04-23T10:08:18.545Z,5.57
2019-04-23T10:10:32.510Z,6.10
2019-04-23T10:13:00.173Z,6.50
2019-04-23T10:15:32.412Z,6.20
2019-04-23T10:17:54.116Z,5.57
2019-04-23T10:20:20.640Z,6.70
2019-04-23T10:22:46.312Z,6.50
2019-04-23T10:25:12.986Z,7.30
2019-04-23T10:27:41.236Z,6.53
2019-04-23T10:30:07.949Z,5.93
2019-04-23T10:32:33.539Z,5.23
2019-04-23T10:35:10.152Z,5.83
2019-04-23T10:37:39.429Z,6.30
2019-04-23T10:39:56.676Z,6.40
2019-04-23T10:42:21.799Z,6.00
2019-04-23T10:45:08.162Z,5.90
2019-04-23T10:47:54.298Z,6.33
2019-04-23T10:50:26.045Z,6.20
2019-04-23T10:53:04.518Z,5.53
2019-04-23T10:55:32.235Z,6.10
2019-04-23T10:57:36.069Z,6.63
2019-04-23T11:00:09.490Z,5.83
2019-04-23T11:05:11.783Z,5.75
2019-04-23T11:07:38.393Z,6.40
2019-04-23T11:10:03.319Z,5.97
2019-04-23T11:12:43.652Z,5.50
2019-04-23T11:15:23.347Z,5.63
2019-04-23T11:17:47.944Z,5.57
2019-04-23T11:20:15.158Z,5.43
2019-04-23T11:24:59.158Z,6.07
2019-04-23T11:27:28.116Z,6.00
2019-04-23T11:30:05.704Z,5.97
2019-04-23T11:32:42.907Z,6.03
2019-04-23T11:35:04.347Z,5.30
2019-04-23T11:37:23.117Z,6.13
2019-04-23T11:44:49.545Z,5.97
2019-04-23T11:47:08.295Z,5.93
2019-04-23T11:49:44.840Z,5.47
2019-04-23T11:52:05.582Z,6.20
2019-04-23T11:54:24.187Z,5.93
2019-04-23T11:59:25.732Z,6.30
2019-04-23T12:09:54.992Z,5.50
2019-04-23T12:12:26.830Z,6.10
2019-04-23T12:14:39.148Z,6.07
2019-04-23T12:29:30.413Z,5.50
2019-04-23T12:32:01.825Z,6.47
2019-04-23T12:34:25.799Z,6.40
2019-04-23T12:36:46.661Z,6.40
2019-04-23T12:39:21.481Z,5.90
2019-04-23T12:41:45.512Z,5.87
2019-04-23T12:44:19.437Z,5.83
2019-04-23T12:46:46.199Z,6.10
2019-04-23T12:51:48.699Z,5.93
2019-04-23T12:53:57.933Z,6.20
2019-04-23T12:56:32.008Z,6.10
2019-04-23T12:58:45.169Z,5.90
2019-04-23T13:01:14.131Z,6.00
2019-04-23T13:03:40.899Z,5.90
2019-04-23T13:06:11.471Z,5.37
2019-04-23T13:11:08.013Z,5.70
2019-04-23T13:15:53.248Z,5.27
2019-04-23T13:18:31.887Z,5.60
2019-04-23T13:20:41.804Z,5.77
2019-04-23T13:25:54.279Z,5.90
2019-04-23T13:28:21.433Z,5.70
2019-04-23T13:33:26.774Z,5.97
2019-04-23T13:35:53.393Z,5.13
2019-04-23T13:40:39.290Z,5.40
2019-04-23T13:43:01.146Z,5.50
2019-04-23T13:48:00.399Z,5.90
2019-04-23T13:50:34.592Z,6.03
2019-04-23T13:55:09.179Z,5.70
2019-04-23T14:00:09.421Z,6.50
2019-04-23T14:05:04.747Z,6.03
2019-04-23T14:07:38.378Z,5.90
2019-04-23T14:12:31.930Z,5.67
2019-04-23T14:15:12.467Z,5.77
2019-04-23T14:17:38.230Z,5.80
2019-04-23T14:19:53.524Z,5.33
2019-04-23T14:22:31.299Z,5.70
2019-04-23T14:24:53.157Z,5.90
2019-04-23T14:27:14.946Z,5.80
2019-04-23T14:29:38.865Z,6.07
2019-04-23T14:32:08.772Z,5.20
2019-04-23T14:34:30.469Z,5.30
2019-04-23T14:36:59.515Z,5.30
2019-04-23T14:39:25.512Z,6.00
2019-04-23T14:41:53.932Z,4.90
2019-04-23T14:46:54.866Z,5.97
2019-04-23T14:49:24.656Z,5.87
2019-04-23T14:51:51.619Z,5.60
2019-04-23T14:54:15.818Z,5.50
2019-04-23T14:56:44.883Z,5.27
2019-04-23T15:01:36.311Z,5.00
2019-04-23T15:03:55.282Z,5.90
2019-04-23T15:11:27.611Z,6.80
2019-04-23T15:16:22.329Z,6.57
2019-04-23T15:21:42.907Z,5.53
2019-04-23T15:23:51.415Z,5.70
2019-04-23T15:28:10.151Z,5.50
2019-04-23T15:31:02.478Z,5.90
2019-04-23T15:36:12.951Z,6.03
2019-04-23T15:38:37.699Z,5.57
2019-04-23T15:40:53.921Z,6.13
2019-04-23T15:45:44.499Z,5.33
2019-04-23T15:48:12.038Z,5.17
2019-04-23T15:50:37.649Z,5.40
2019-04-23T15:55:28.300Z,6.27
2019-04-23T16:00:19.249Z,4.70
2019-04-23T16:02:20.866Z,5.47
2019-04-23T16:04:48.960Z,5.07
2019-04-23T16:07:31.476Z,5.90
2019-04-23T16:12:31.391Z,4.33
2019-04-23T16:15:07.804Z,5.50
2019-04-23T16:17:28.899Z,5.17
2019-04-23T16:20:25.518Z,4.90
2019-04-23T16:25:17.321Z,5.20
2019-04-23T16:27:26.045Z,5.07
2019-04-23T16:32:38.040Z,4.97
2019-04-23T16:35:12.876Z,5.70
2019-04-23T16:37:27.393Z,5.40
2019-04-23T16:40:01.850Z,4.67
2019-04-23T16:42:24.882Z,5.28
2019-04-23T16:45:02.793Z,5.30
2019-04-23T16:47:21.711Z,5.10
2019-04-23T16:49:47.246Z,6.27
2019-04-23T16:52:07.819Z,4.70
2019-04-23T16:54:39.109Z,5.40
2019-04-23T16:59:54.293Z,5.65
2019-04-23T17:02:03.614Z,5.67
2019-04-23T17:04:24.821Z,5.43
2019-04-23T17:06:53.496Z,5.70
2019-04-23T17:09:22.045Z,5.40
2019-04-23T17:11:41.734Z,5.73
2019-04-23T17:14:13.570Z,5.50
2019-04-23T17:16:40.114Z,5.93
2019-04-23T17:19:10.410Z,4.77
2019-04-23T17:21:29.845Z,5.17
2019-04-23T17:24:08.085Z,5.53
2019-04-23T17:26:25.666Z,5.77
2019-04-23T17:28:54.325Z,5.23
2019-04-23T17:31:30.836Z,5.80
2019-04-23T17:36:28.562Z,5.10
2019-04-23T17:39:01.354Z,5.73
2019-04-23T17:44:01.433Z,5.70
2019-04-23T17:48:40.293Z,7.53
2019-04-23T17:51:17.721Z,5.43
2019-04-23T17:53:40.460Z,5.60
2019-04-23T17:56:26.249Z,6.73
2019-04-23T17:58:37.228Z,6.00
2019-04-23T18:01:17.046Z,7.60
2019-04-23T18:03:46.025Z,7.33
2019-04-23T18:08:27.714Z,8.40
2019-04-23T18:10:56.300Z,8.10
2019-04-23T18:13:21.068Z,7.80
2019-04-23T18:15:45.251Z,7.23
2019-04-23T18:18:10.086Z,7.77
2019-04-23T18:20:56.121Z,7.43
2019-04-23T18:23:10.016Z,7.10
2019-04-23T18:25:51.838Z,7.90
2019-04-23T18:28:10.415Z,8.30
2019-04-23T18:30:56.689Z,7.83
2019-04-23T18:33:56.694Z,8.63
2019-04-23T18:35:44.608Z,7.70
2019-04-23T18:41:00.958Z,7.73
2019-04-23T18:43:20.181Z,8.10
2019-04-23T18:48:11.066Z,7.97
2019-04-23T18:50:48.348Z,8.07
2019-04-23T18:53:09.776Z,9.45
2019-04-23T18:55:46.572Z,8.23
2019-04-23T18:58:03.886Z,8.87
2019-04-23T19:00:39.484Z,8.33
2019-04-23T19:03:21.792Z,8.87
2019-04-23T19:06:10.055Z,8.80
2019-04-23T19:08:48.964Z,7.93
2019-04-23T19:11:31.917Z,9.77
2019-04-23T19:13:44.585Z,9.57
2019-04-23T19:16:13.100Z,11.87
2019-04-23T19:18:45.154Z,9.93
2019-04-23T19:21:10.803Z,8.70
2019-04-23T19:23:42.844Z,9.00
2019-04-23T19:25:54.615Z,8.27
2019-04-23T19:28:41.402Z,8.13
2019-04-23T19:31:06.267Z,8.03
2019-04-23T19:33:36.660Z,8.43
2019-04-23T19:36:04.493Z,8.00
2019-04-23T19:38:23.954Z,9.57
2019-04-23T19:40:51.196Z,9.23
2019-04-23T19:43:11.956Z,8.80
2019-04-23T19:48:11.480Z,9.40
2019-04-23T19:50:40.630Z,9.15
2019-04-23T19:55:24.113Z,8.00
2019-04-23T19:57:55.304Z,7.77
2019-04-23T20:00:17.110Z,7.70
2019-04-23T20:05:13.709Z,8.77
2019-04-23T20:07:52.232Z,7.63
2019-04-23T20:09:56.880Z,9.33
2019-04-23T20:12:38.683Z,9.15
2019-04-23T20:14:56.245Z,8.13
2019-04-23T20:19:48.311Z,8.53
2019-04-23T20:22:29.201Z,8.53
2019-04-23T20:30:14.423Z,9.20
2019-04-23T20:34:59.089Z,9.30
2019-04-23T20:37:29.401Z,9.40
2019-04-23T20:39:50.799Z,8.37
2019-04-23T20:44:50.816Z,8.60
2019-04-23T20:47:11.468Z,7.93
2019-04-23T20:52:04.746Z,8.03
2019-04-23T20:54:44.656Z,8.83
2019-04-23T20:57:22.980Z,9.17
2019-04-23T20:59:49.897Z,8.13
2019-04-23T21:02:34.349Z,7.87
2019-04-23T21:05:01.395Z,8.13
2019-04-23T21:07:22.141Z,9.27
2019-04-23T21:09:51.522Z,8.38
2019-04-23T21:12:16.183Z,7.97
2019-04-23T21:14:48.408Z,7.47
2019-04-23T21:17:07.410Z,8.07
2019-04-23T21:19:48.618Z,8.58
2019-04-23T21:22:02.561Z,8.20
2019-04-23T21:24:27.478Z,7.73
2019-04-23T21:27:07.347Z,8.55
2019-04-23T21:29:36.419Z,7.90
2019-04-23T21:31:48.502Z,7.50
2019-04-23T21:36:44.505Z,8.80
2019-04-23T21:39:24.645Z,7.70
2019-04-23T21:46:58.778Z,8.30
2019-04-23T21:49:50.689Z,8.50
2019-04-23T21:51:56.451Z,8.30
2019-04-23T21:54:07.943Z,8.33
2019-04-23T21:56:42.969Z,7.43
2019-04-23T22:06:40.054Z,7.90
2019-04-23T22:18:58.613Z,8.77
2019-04-23T22:21:15.339Z,8.90
2019-04-23T22:23:52.629Z,9.40
2019-04-23T22:26:16.803Z,9.63
2019-04-23T22:28:43.512Z,9.27
2019-04-23T22:31:04.051Z,10.43
2019-04-23T22:33:26.868Z,9.90
2019-04-23T22:35:55.639Z,8.60
2019-04-23T22:38:18.737Z,8.90
2019-04-23T22:40:50.717Z,9.27
2019-04-23T22:45:43.103Z,8.10
2019-04-23T22:50:38.484Z,7.73
2019-04-23T22:53:01.543Z,8.43
2019-04-23T22:55:27.666Z,7.93
2019-04-23T23:03:01.240Z,7.87
2019-04-23T23:05:29.033Z,7.20
2019-04-23T23:07:56.241Z,8.80
2019-04-23T23:10:28.358Z,8.90
2019-04-23T23:12:53.322Z,7.83
2019-04-23T23:15:15.967Z,8.30
2019-04-23T23:17:45.555Z,8.83
2019-04-23T23:20:15.693Z,7.73
2019-04-23T23:22:31.487Z,9.00
2019-04-23T23:25:04.715Z,8.07
2019-04-23T23:27:24.693Z,8.37
2019-04-23T23:29:58.118Z,9.10
2019-04-23T23:32:24.440Z,8.20
2019-04-23T23:35:00.766Z,8.20
2019-04-23T23:37:12.144Z,8.07
2019-04-23T23:39:40.667Z,8.30
2019-04-23T23:42:18.114Z,7.10
2019-04-23T23:47:03.192Z,7.43
2019-04-23T23:49:28.447Z,7.30
2019-04-23T23:51:55.349Z,8.00
2019-04-23T23:56:52.311Z,7.47
2019-04-23T23:59:26.974Z,7.70
